Terminal Aerodrome Forecast
Issued by NWS Raleigh/Durham, NC

Home | Current Version | Previous Version | Text Only | Print | Product List | Glossary On
Versions: 1 2 3 4 5 6 7 8 9 10 11 12 13 14 15
000
FTUS42 KRAH 291738
TAFGSO
TAF
KGSO 291738Z 2918/3018 02005KT P6SM VCSH SCT025 BKN035
      TEMPO 2918/2922 5SM -SHRA BR BKN015 OVC025
     FM292200 02007KT P6SM VCSH SCT015 BKN035
      TEMPO 2922/3002 5SM -SHRA BR BKN015 OVC025=

USA.gov is the U.S. government's official web portal to all federal, state and local government web resources and services.